Bookmark and Share
Track history (hours):
 

Johann Essberger

Last reported at 2014-Apr-19 14:19 UTC. Time now 2014-Apr-20 16:04 UTC.
Position N 55°48' E 015°57'.

Length 100 m; draft 6.4 m.

Type: Ship (hazmat cat B). MMSI: 255804460.

NotesDate/timePositionNaut miles runAvg speedWind from/ knotsBaromVisibWave heightAir tempDewpointWater temp
2014-Apr-19 14:19N 55°48' E 015°57'810.4
2014-Apr-19 13:33N 55°44' E 015°44'1010.2
2014-Apr-19 12:33N 55°39' E 015°28'1010.2
2014-Apr-19 11:33N 55°34' E 015°13'1110.5
2014-Apr-19 10:33N 55°29' E 014°57'1110.6
2014-Apr-19 09:33N 55°24' E 014°40'1110.6
2014-Apr-19 08:33N 55°16' E 014°28'1110.6
2014-Apr-19 07:33N 55°07' E 014°17'1010.3
2014-Apr-19 06:33N 55°00' E 014°04'1110.9
2014-Apr-19 05:33N 54°57' E 013°46'1110.9
2014-Apr-19 04:33N 54°53' E 013°28'1010.1
2014-Apr-19 03:33N 54°50' E 013°11'1110.8
2014-Apr-19 02:33N 54°47' E 012°53'1110.9
2014-Apr-19 01:33N 54°41' E 012°37'1110.6
2014-Apr-19 00:33N 54°36' E 012°21'1110.7
2014-Apr-18 23:33N 54°26' E 012°12'10 9.7
2014-Apr-18 22:33N 54°24' E 011°56'9 9.5
2014-Apr-18 21:33N 54°26' E 011°40'1010.0
2014-Apr-18 20:33N 54°31' E 011°25'1110.7
2014-Apr-18 19:33N 54°35' E 011°08'58 8.0
2014-Apr-18 12:23N 54°14' E 009°36'7 8.3
2014-Apr-18 11:33N 54°10' E 009°26'7 7.3
2014-Apr-18 10:33N 54°04' E 009°19'6 5.7
2014-Apr-18 09:33N 53°59' E 009°16'7 6.7
2014-Apr-18 08:33N 53°54' E 009°09'3 2.7
2014-Apr-18 07:33N 53°53' E 009°05'10 9.8
2014-Apr-18 06:33N 53°50' E 008°49'1010.3
2014-Apr-18 05:33N 53°57' E 008°36'1111.1
2014-Apr-18 04:33N 53°60' E 008°18'9 9.3
2014-Apr-18 03:33N 54°00' E 008°02'1010.3
2014-Apr-18 02:33N 54°05' E 007°46'1010.4
2014-Apr-18 01:33N 54°09' E 007°30'1111.0
2014-Apr-18 00:33N 54°09' E 007°11'1111.5
2014-Apr-17 23:33N 54°09' E 006°52'22812.0
2014-Apr-17 04:33N 53°33' E 000°30'1212.1
2014-Apr-17 03:33N 53°32' E 000°10'1010.4
2014-Apr-17 02:33N 53°37' W 000°06'4 3.5
2014-Apr-17 01:33N 53°38' W 000°11'0 0.0
2014-Apr-16 18:29N 53°38' W 000°11'0 0.0
2014-Apr-15 12:34N 53°38' W 000°11'3 2.5
2014-Apr-15 11:34N 53°38' W 000°07'8 7.9
2014-Apr-15 10:34N 53°34' E 000°05'1010.3
2014-Apr-15 09:33N 53°33' E 000°22'5 5.0
2014-Apr-15 08:34N 53°36' E 000°28'0 0.1
2014-Apr-15 07:34N 53°36' E 000°28'0 0.2
2014-Apr-15 06:33N 53°36' E 000°28'0 0.0
2014-Apr-15 05:33N 53°36' E 000°28'15 7.3
2014-Apr-15 03:31N 53°51' E 000°34'4 4.3
2014-Apr-15 02:32N 53°55' E 000°36'7 7.5
2014-Apr-15 01:34N 54°02' E 000°36'6 6.3
2014-Apr-15 00:34N 54°08' E 000°37'10 9.7
2014-Apr-14 23:34N 54°11' E 000°21'1010.4
2014-Apr-14 22:34N 54°19' E 000°11'1010.0
2014-Apr-14 21:34N 54°27' E 000°00'10 9.7
2014-Apr-14 20:34N 54°35' W 000°10'10 9.7
2014-Apr-14 19:34N 54°41' W 000°24'1010.0
2014-Apr-14 18:31N 54°41' W 000°42'1010.1
2014-Apr-14 17:33N 54°41' W 000°58'9 9.2
2014-Apr-14 16:33N 54°35' W 001°11'3 2.6
2014-Apr-14 15:32N 54°35' W 001°16'4 0.2
2014-Apr-13 13:33N 54°37' W 001°09'1 1.3
2014-Apr-13 12:33N 54°38' W 001°09'3 3.4
2014-Apr-13 11:33N 54°40' W 001°04'0 0.1
2014-Apr-13 10:33N 54°40' W 001°04'0 0.0
2014-Apr-13 09:33N 54°40' W 001°04'0 0.0
2014-Apr-13 08:33N 54°40' W 001°04'0 0.1
2014-Apr-13 07:33N 54°40' W 001°04'0 0.0
2014-Apr-13 06:33N 54°40' W 001°04'0 0.0
2014-Apr-13 05:33N 54°40' W 001°04'0 0.0
2014-Apr-13 04:33N 54°40' W 001°04'0 0.0
2014-Apr-13 03:33N 54°40' W 001°04'0 0.0
2014-Apr-13 02:33N 54°40' W 001°04'0 0.0
2014-Apr-13 01:33N 54°40' W 001°04'0 0.0
2014-Apr-13 00:33N 54°40' W 001°04'0 0.0
2014-Apr-12 23:33N 54°40' W 001°04'0 0.0
2014-Apr-12 22:33N 54°40' W 001°04'0 0.0
2014-Apr-12 21:33N 54°40' W 001°04'0 0.0
2014-Apr-12 20:33N 54°40' W 001°04'0 0.0
2014-Apr-12 19:33N 54°40' W 001°04'0 0.0
2014-Apr-12 18:33N 54°40' W 001°04'0 0.0
2014-Apr-12 17:33N 54°40' W 001°04'0 0.0
2014-Apr-12 16:34N 54°40' W 001°04'0 0.0
2014-Apr-12 15:33N 54°40' W 001°04'0 0.0
2014-Apr-12 14:33N 54°40' W 001°04'0 0.0
2014-Apr-12 13:33N 54°40' W 001°04'0 0.0
2014-Apr-12 12:33N 54°40' W 001°04'0 0.0
2014-Apr-12 11:33N 54°40' W 001°04'0 0.0
2014-Apr-12 10:33N 54°40' W 001°04'0 0.0
2014-Apr-12 09:33N 54°40' W 001°04'0 0.0
2014-Apr-12 08:33N 54°40' W 001°04'0 0.0
2014-Apr-12 07:33N 54°40' W 001°04'7 7.3
2014-Apr-12 06:33N 54°38' W 000°51'1211.8
2014-Apr-12 05:33N 54°34' W 000°32'1111.2
2014-Apr-12 04:33N 54°27' W 000°17'1111.1
2014-Apr-12 03:33N 54°20' W 000°03'1110.5
2014-Apr-12 02:33N 54°12' E 000°10'1010.4
2014-Apr-12 01:33N 54°04' E 000°21'1110.8
2014-Apr-12 00:33N 53°55' E 000°31'6011.9
2014-Apr-11 19:33N 53°11' E 001°38'1110.7
2014-Apr-11 18:33N 53°06' E 001°54'9 9.5
2014-Apr-11 17:33N 53°00' E 002°07'9 9.2
2014-Apr-11 16:33N 52°53' E 002°15'1110.5
2014-Apr-11 15:32N 52°42' E 002°20'4911.2
2014-Apr-11 11:12N 51°56' E 002°45'16 9.8
2014-Apr-11 09:32N 51°46' E 003°05'1010.5
2014-Apr-11 08:33N 51°40' E 003°19'1212.4
2014-Apr-11 07:33N 51°30' E 003°29'1010.2
2014-Apr-11 06:33N 51°24' E 003°43'10 9.8
2014-Apr-11 05:33N 51°26' E 003°58'1110.8
2014-Apr-11 04:34N 51°21' E 004°14'4 3.8
2014-Apr-11 03:34N 51°18' E 004°17'0 0.0
2014-Apr-10 05:33N 51°18' E 004°17'0 0.0
2014-Apr-10 04:34N 51°18' E 004°17'7 6.7
2014-Apr-10 03:33N 51°24' E 004°12'9 8.8
2014-Apr-10 02:33N 51°25' E 003°58'9 9.5
2014-Apr-10 01:33N 51°23' E 003°43'9 8.9
2014-Apr-10 00:33N 51°28' E 003°31'1312.7
2014-Apr-09 23:33N 51°39' E 003°20'1312.7
2014-Apr-09 22:33N 51°45' E 003°02'1711.8
2014-Apr-09 21:06N 51°50' E 002°36'1811.3
2014-Apr-09 19:32N 52°02' E 002°15'  

Dump ship's entire track history

sailing weather and tide predictions

Johann Essberger — CQKG — position and weather